sensor_id;sensor_type;location;lat;lon;timestamp;temperature;humidity
5246;DHT22;54412;51.206;6.888;2022-10-26T00:00:07;13.40;99.90
5246;DHT22;54412;51.206;6.888;2022-10-26T00:02:34;13.40;99.90
5246;DHT22;54412;51.206;6.888;2022-10-26T00:04:59;13.40;99.90
5246;DHT22;54412;51.206;6.888;2022-10-26T00:07:27;13.40;99.90
5246;DHT22;54412;51.206;6.888;2022-10-26T00:09:54;13.40;99.90
5246;DHT22;54412;51.206;6.888;2022-10-26T00:12:20;13.40;99.90
5246;DHT22;54412;51.206;6.888;2022-10-26T00:14:45;13.40;99.90
5246;DHT22;54412;51.206;6.888;2022-10-26T00:17:11;13.50;99.90
5246;DHT22;54412;51.206;6.888;2022-10-26T00:19:37;13.50;99.90
5246;DHT22;54412;51.206;6.888;2022-10-26T00:22:02;13.50;99.90
5246;DHT22;54412;51.206;6.888;2022-10-26T00:24:28;13.50;99.90
5246;DHT22;54412;51.206;6.888;2022-10-26T00:26:54;13.50;99.90
5246;DHT22;54412;51.206;6.888;2022-10-26T00:29:19;13.60;99.90
5246;DHT22;54412;51.206;6.888;2022-10-26T00:31:45;13.60;99.90
5246;DHT22;54412;51.206;6.888;2022-10-26T00:34:11;13.60;99.90
5246;DHT22;54412;51.206;6.888;2022-10-26T00:36:37;13.60;99.90
5246;DHT22;54412;51.206;6.888;2022-10-26T00:39:03;13.60;99.90
5246;DHT22;54412;51.206;6.888;2022-10-26T00:41:31;13.50;99.90
5246;DHT22;54412;51.206;6.888;2022-10-26T00:43:58;13.50;99.90
5246;DHT22;54412;51.206;6.888;2022-10-26T00:46:30;13.60;99.90
5246;DHT22;54412;51.206;6.888;2022-10-26T00:49:15;13.60;99.90
5246;DHT22;54412;51.206;6.888;2022-10-26T00:51:50;13.60;99.90
5246;DHT22;54412;51.206;6.888;2022-10-26T00:54:18;13.50;99.90
5246;DHT22;54412;51.206;6.888;2022-10-26T00:56:47;13.60;99.90
5246;DHT22;54412;51.206;6.888;2022-10-26T00:59:16;13.70;99.90
5246;DHT22;54412;51.206;6.888;2022-10-26T01:01:44;13.50;99.90
5246;DHT22;54412;51.206;6.888;2022-10-26T01:04:13;13.60;99.90
5246;DHT22;54412;51.206;6.888;2022-10-26T01:06:40;13.60;99.90
5246;DHT22;54412;51.206;6.888;2022-10-26T01:09:08;13.60;99.90
5246;DHT22;54412;51.206;6.888;2022-10-26T01:11:35;13.70;99.90
5246;DHT22;54412;51.206;6.888;2022-10-26T01:14:02;13.70;99.90
5246;DHT22;54412;51.206;6.888;2022-10-26T01:22:43;13.70;99.90
5246;DHT22;54412;51.206;6.888;2022-10-26T01:25:38;13.80;99.90
5246;DHT22;54412;51.206;6.888;2022-10-26T01:31:33;13.80;99.90
5246;DHT22;54412;51.206;6.888;2022-10-26T01:34:13;13.80;99.90
5246;DHT22;54412;51.206;6.888;2022-10-26T01:36:53;13.90;99.90
5246;DHT22;54412;51.206;6.888;2022-10-26T01:39:36;13.90;99.90
5246;DHT22;54412;51.206;6.888;2022-10-26T01:42:08;13.90;99.90
5246;DHT22;54412;51.206;6.888;2022-10-26T01:44:42;13.90;99.90
5246;DHT22;54412;51.206;6.888;2022-10-26T01:47:13;13.90;99.90
5246;DHT22;54412;51.206;6.888;2022-10-26T01:49:46;13.90;99.90
5246;DHT22;54412;51.206;6.888;2022-10-26T01:52:18;13.90;99.90
5246;DHT22;54412;51.206;6.888;2022-10-26T01:54:44;13.90;99.90
5246;DHT22;54412;51.206;6.888;2022-10-26T01:57:12;13.90;99.90
5246;DHT22;54412;51.206;6.888;2022-10-26T02:00:07;14.00;99.90
5246;DHT22;54412;51.206;6.888;2022-10-26T02:02:38;14.00;99.90
5246;DHT22;54412;51.206;6.888;2022-10-26T02:24:47;14.20;99.90
5246;DHT22;54412;51.206;6.888;2022-10-26T02:27:20;14.20;99.90
5246;DHT22;54412;51.206;6.888;2022-10-26T02:29:50;14.20;99.90
5246;DHT22;54412;51.206;6.888;2022-10-26T02:32:19;14.20;99.90
5246;DHT22;54412;51.206;6.888;2022-10-26T02:34:50;14.20;99.90
5246;DHT22;54412;51.206;6.888;2022-10-26T02:37:19;14.20;99.90
5246;DHT22;54412;51.206;6.888;2022-10-26T02:39:50;14.20;99.90
5246;DHT22;54412;51.206;6.888;2022-10-26T02:42:18;14.20;99.90
5246;DHT22;54412;51.206;6.888;2022-10-26T02:44:50;14.20;99.90
5246;DHT22;54412;51.206;6.888;2022-10-26T02:47:22;14.20;99.90
5246;DHT22;54412;51.206;6.888;2022-10-26T02:49:49;14.30;99.90
5246;DHT22;54412;51.206;6.888;2022-10-26T02:52:35;14.20;99.90
5246;DHT22;54412;51.206;6.888;2022-10-26T02:55:23;14.30;99.90
5246;DHT22;54412;51.206;6.888;2022-10-26T02:57:58;14.30;99.90
5246;DHT22;54412;51.206;6.888;2022-10-26T03:00:28;14.30;99.90
5246;DHT22;54412;51.206;6.888;2022-10-26T03:02:56;14.30;99.90
5246;DHT22;54412;51.206;6.888;2022-10-26T03:05:25;14.30;99.90
5246;DHT22;54412;51.206;6.888;2022-10-26T03:07:54;14.30;99.90
5246;DHT22;54412;51.206;6.888;2022-10-26T03:10:21;14.30;99.90
5246;DHT22;54412;51.206;6.888;2022-10-26T03:12:47;14.30;99.90
5246;DHT22;54412;51.206;6.888;2022-10-26T03:15:13;14.40;99.90
5246;DHT22;54412;51.206;6.888;2022-10-26T03:17:40;14.30;99.90
5246;DHT22;54412;51.206;6.888;2022-10-26T03:20:06;14.30;99.90
5246;DHT22;54412;51.206;6.888;2022-10-26T03:22:33;14.30;99.90
5246;DHT22;54412;51.206;6.888;2022-10-26T03:24:58;14.30;99.90
5246;DHT22;54412;51.206;6.888;2022-10-26T03:27:24;14.30;99.90
5246;DHT22;54412;51.206;6.888;2022-10-26T03:29:51;14.30;99.90
5246;DHT22;54412;51.206;6.888;2022-10-26T03:32:18;14.40;99.90
5246;DHT22;54412;51.206;6.888;2022-10-26T03:34:43;14.40;99.90
5246;DHT22;54412;51.206;6.888;2022-10-26T03:37:09;14.40;99.90
5246;DHT22;54412;51.206;6.888;2022-10-26T03:39:35;14.40;99.90
5246;DHT22;54412;51.206;6.888;2022-10-26T03:42:00;14.40;99.90
5246;DHT22;54412;51.206;6.888;2022-10-26T03:44:26;14.50;99.90
5246;DHT22;54412;51.206;6.888;2022-10-26T03:46:52;14.40;99.90
5246;DHT22;54412;51.206;6.888;2022-10-26T03:49:18;14.50;99.90
5246;DHT22;54412;51.206;6.888;2022-10-26T03:51:43;14.40;99.90
5246;DHT22;54412;51.206;6.888;2022-10-26T03:54:09;14.50;99.90
5246;DHT22;54412;51.206;6.888;2022-10-26T03:56:34;14.50;99.90
5246;DHT22;54412;51.206;6.888;2022-10-26T03:59:00;14.50;99.90
5246;DHT22;54412;51.206;6.888;2022-10-26T04:01:26;14.50;99.90
5246;DHT22;54412;51.206;6.888;2022-10-26T04:03:51;14.50;99.90
5246;DHT22;54412;51.206;6.888;2022-10-26T04:06:17;14.50;99.90
5246;DHT22;54412;51.206;6.888;2022-10-26T04:08:43;14.50;99.90
5246;DHT22;54412;51.206;6.888;2022-10-26T04:11:08;14.50;99.90
5246;DHT22;54412;51.206;6.888;2022-10-26T04:13:34;14.60;99.90
5246;DHT22;54412;51.206;6.888;2022-10-26T04:16:00;14.60;99.90
5246;DHT22;54412;51.206;6.888;2022-10-26T04:18:25;14.60;99.90
5246;DHT22;54412;51.206;6.888;2022-10-26T04:20:51;14.70;99.90
5246;DHT22;54412;51.206;6.888;2022-10-26T04:23:18;14.60;99.90
5246;DHT22;54412;51.206;6.888;2022-10-26T04:25:44;14.70;99.90
5246;DHT22;54412;51.206;6.888;2022-10-26T04:28:11;14.70;99.90
5246;DHT22;54412;51.206;6.888;2022-10-26T04:30:39;14.70;99.90
5246;DHT22;54412;51.206;6.888;2022-10-26T04:33:05;14.70;99.90
5246;DHT22;54412;51.206;6.888;2022-10-26T04:35:33;14.70;99.90
5246;DHT22;54412;51.206;6.888;2022-10-26T04:38:00;14.70;99.90
5246;DHT22;54412;51.206;6.888;2022-10-26T04:40:29;14.80;99.90
5246;DHT22;54412;51.206;6.888;2022-10-26T04:42:55;14.80;99.90
5246;DHT22;54412;51.206;6.888;2022-10-26T04:45:21;14.80;99.90
5246;DHT22;54412;51.206;6.888;2022-10-26T04:48:01;14.80;99.90
5246;DHT22;54412;51.206;6.888;2022-10-26T04:50:34;14.80;99.90
5246;DHT22;54412;51.206;6.888;2022-10-26T04:53:02;14.90;99.90
5246;DHT22;54412;51.206;6.888;2022-10-26T04:55:29;14.90;99.90
5246;DHT22;54412;51.206;6.888;2022-10-26T04:57:55;14.90;99.90
5246;DHT22;54412;51.206;6.888;2022-10-26T05:00:21;15.00;99.90
5246;DHT22;54412;51.206;6.888;2022-10-26T05:02:46;15.00;99.90
5246;DHT22;54412;51.206;6.888;2022-10-26T05:05:12;15.10;99.90
5246;DHT22;54412;51.206;6.888;2022-10-26T05:07:38;15.00;99.90
5246;DHT22;54412;51.206;6.888;2022-10-26T05:10:04;15.00;99.90
5246;DHT22;54412;51.206;6.888;2022-10-26T05:12:31;15.00;99.90
5246;DHT22;54412;51.206;6.888;2022-10-26T05:14:56;15.00;99.90
5246;DHT22;54412;51.206;6.888;2022-10-26T05:17:24;15.00;99.90
5246;DHT22;54412;51.206;6.888;2022-10-26T05:19:50;15.10;99.90
5246;DHT22;54412;51.206;6.888;2022-10-26T05:22:22;15.10;99.90
5246;DHT22;54412;51.206;6.888;2022-10-26T05:24:49;15.10;99.90
5246;DHT22;54412;51.206;6.888;2022-10-26T05:27:14;15.00;99.90
5246;DHT22;54412;51.206;6.888;2022-10-26T05:29:40;15.00;99.90
5246;DHT22;54412;51.206;6.888;2022-10-26T05:32:06;14.90;99.90
5246;DHT22;54412;51.206;6.888;2022-10-26T05:34:31;14.90;99.90
5246;DHT22;54412;51.206;6.888;2022-10-26T05:36:57;14.90;99.90
5246;DHT22;54412;51.206;6.888;2022-10-26T05:39:23;14.80;99.90
5246;DHT22;54412;51.206;6.888;2022-10-26T05:41:48;14.80;99.90
5246;DHT22;54412;51.206;6.888;2022-10-26T05:44:14;14.80;99.90
5246;DHT22;54412;51.206;6.888;2022-10-26T05:46:40;14.80;99.90
5246;DHT22;54412;51.206;6.888;2022-10-26T05:49:06;14.80;99.90
5246;DHT22;54412;51.206;6.888;2022-10-26T05:51:32;14.80;99.90
5246;DHT22;54412;51.206;6.888;2022-10-26T05:53:59;14.80;99.90
5246;DHT22;54412;51.206;6.888;2022-10-26T05:56:37;14.90;99.90
5246;DHT22;54412;51.206;6.888;2022-10-26T05:59:11;14.80;99.90
5246;DHT22;54412;51.206;6.888;2022-10-26T06:07:13;14.90;99.90
5246;DHT22;54412;51.206;6.888;2022-10-26T06:09:41;14.90;99.90
5246;DHT22;54412;51.206;6.888;2022-10-26T06:12:08;14.90;99.90
5246;DHT22;54412;51.206;6.888;2022-10-26T06:14:36;14.80;99.90
5246;DHT22;54412;51.206;6.888;2022-10-26T06:17:16;14.80;99.90
5246;DHT22;54412;51.206;6.888;2022-10-26T06:26:31;14.90;99.90
5246;DHT22;54412;51.206;6.888;2022-10-26T06:31:45;14.80;99.90
5246;DHT22;54412;51.206;6.888;2022-10-26T06:34:17;14.80;99.90
5246;DHT22;54412;51.206;6.888;2022-10-26T06:36:49;14.80;99.90
5246;DHT22;54412;51.206;6.888;2022-10-26T06:39:16;14.90;99.90
5246;DHT22;54412;51.206;6.888;2022-10-26T06:41:44;14.80;99.90
5246;DHT22;54412;51.206;6.888;2022-10-26T06:44:18;14.90;99.90
5246;DHT22;54412;51.206;6.888;2022-10-26T06:47:22;14.90;99.90
5246;DHT22;54412;51.206;6.888;2022-10-26T06:50:18;14.90;99.90
5246;DHT22;54412;51.206;6.888;2022-10-26T06:52:59;14.90;99.90
5246;DHT22;54412;51.206;6.888;2022-10-26T06:55:42;15.00;99.90
5246;DHT22;54412;51.206;6.888;2022-10-26T06:58:13;15.00;99.90
5246;DHT22;54412;51.206;6.888;2022-10-26T07:00:43;15.00;99.90
5246;DHT22;54412;51.206;6.888;2022-10-26T07:03:10;15.00;99.90
5246;DHT22;54412;51.206;6.888;2022-10-26T07:05:36;15.00;99.90
5246;DHT22;54412;51.206;6.888;2022-10-26T07:08:03;15.10;99.90
5246;DHT22;54412;51.206;6.888;2022-10-26T07:10:29;15.10;99.90
5246;DHT22;54412;51.206;6.888;2022-10-26T07:12:54;15.10;99.90
5246;DHT22;54412;51.206;6.888;2022-10-26T07:15:20;15.00;99.90
5246;DHT22;54412;51.206;6.888;2022-10-26T07:17:47;15.10;99.90
5246;DHT22;54412;51.206;6.888;2022-10-26T07:20:16;15.20;99.90
5246;DHT22;54412;51.206;6.888;2022-10-26T07:22:44;15.20;99.90
5246;DHT22;54412;51.206;6.888;2022-10-26T07:25:10;15.20;99.90
5246;DHT22;54412;51.206;6.888;2022-10-26T07:27:36;15.20;99.90
5246;DHT22;54412;51.206;6.888;2022-10-26T07:30:03;15.20;99.90
5246;DHT22;54412;51.206;6.888;2022-10-26T07:32:29;15.30;99.90
5246;DHT22;54412;51.206;6.888;2022-10-26T07:34:55;15.30;99.90
5246;DHT22;54412;51.206;6.888;2022-10-26T07:37:21;15.40;99.90
5246;DHT22;54412;51.206;6.888;2022-10-26T07:39:46;15.40;99.90
5246;DHT22;54412;51.206;6.888;2022-10-26T07:42:14;15.50;99.90
5246;DHT22;54412;51.206;6.888;2022-10-26T07:44:40;15.50;99.90
5246;DHT22;54412;51.206;6.888;2022-10-26T07:47:05;15.60;99.90
5246;DHT22;54412;51.206;6.888;2022-10-26T07:49:31;15.70;99.90
5246;DHT22;54412;51.206;6.888;2022-10-26T07:51:57;15.60;99.90
5246;DHT22;54412;51.206;6.888;2022-10-26T07:54:23;15.60;99.90
5246;DHT22;54412;51.206;6.888;2022-10-26T07:56:48;15.60;99.90
5246;DHT22;54412;51.206;6.888;2022-10-26T07:59:14;15.70;99.90
5246;DHT22;54412;51.206;6.888;2022-10-26T08:01:42;16.00;99.90
5246;DHT22;54412;51.206;6.888;2022-10-26T08:04:07;16.30;99.90
5246;DHT22;54412;51.206;6.888;2022-10-26T08:06:33;16.60;99.90
5246;DHT22;54412;51.206;6.888;2022-10-26T08:08:59;16.80;99.90
5246;DHT22;54412;51.206;6.888;2022-10-26T08:11:24;16.70;99.90
5246;DHT22;54412;51.206;6.888;2022-10-26T08:13:51;16.60;99.90
5246;DHT22;54412;51.206;6.888;2022-10-26T08:16:18;16.90;99.90
5246;DHT22;54412;51.206;6.888;2022-10-26T08:18:47;17.00;99.90
5246;DHT22;54412;51.206;6.888;2022-10-26T08:21:13;17.20;99.90
5246;DHT22;54412;51.206;6.888;2022-10-26T08:23:39;17.30;99.90
5246;DHT22;54412;51.206;6.888;2022-10-26T08:26:05;17.40;99.90
5246;DHT22;54412;51.206;6.888;2022-10-26T08:28:31;17.60;99.90
5246;DHT22;54412;51.206;6.888;2022-10-26T08:30:57;17.80;99.90
5246;DHT22;54412;51.206;6.888;2022-10-26T08:33:23;17.90;99.90
5246;DHT22;54412;51.206;6.888;2022-10-26T08:36:01;18.00;99.90
5246;DHT22;54412;51.206;6.888;2022-10-26T08:38:29;18.00;99.90
5246;DHT22;54412;51.206;6.888;2022-10-26T08:40:56;18.00;99.90
5246;DHT22;54412;51.206;6.888;2022-10-26T08:43:30;17.90;99.90
5246;DHT22;54412;51.206;6.888;2022-10-26T08:46:16;17.70;99.90
5246;DHT22;54412;51.206;6.888;2022-10-26T08:49:00;17.30;99.90
5246;DHT22;54412;51.206;6.888;2022-10-26T08:51:31;17.00;99.90
5246;DHT22;54412;51.206;6.888;2022-10-26T08:54:37;16.80;99.90
5246;DHT22;54412;51.206;6.888;2022-10-26T08:57:21;16.70;99.90
5246;DHT22;54412;51.206;6.888;2022-10-26T08:59:56;16.50;99.90
5246;DHT22;54412;51.206;6.888;2022-10-26T09:02:26;16.50;99.90
5246;DHT22;54412;51.206;6.888;2022-10-26T09:04:52;16.70;99.90
5246;DHT22;54412;51.206;6.888;2022-10-26T09:10:39;17.20;99.90
5246;DHT22;54412;51.206;6.888;2022-10-26T09:13:36;17.10;99.90
5246;DHT22;54412;51.206;6.888;2022-10-26T09:26:02;16.80;99.90
5246;DHT22;54412;51.206;6.888;2022-10-26T09:28:35;16.90;99.90
5246;DHT22;54412;51.206;6.888;2022-10-26T09:31:03;17.10;99.90
5246;DHT22;54412;51.206;6.888;2022-10-26T09:33:32;17.60;99.90
5246;DHT22;54412;51.206;6.888;2022-10-26T09:36:03;18.10;99.90
5246;DHT22;54412;51.206;6.888;2022-10-26T09:41:41;18.80;99.90
5246;DHT22;54412;51.206;6.888;2022-10-26T09:44:38;18.80;99.90
5246;DHT22;54412;51.206;6.888;2022-10-26T09:50:16;18.40;99.90
5246;DHT22;54412;51.206;6.888;2022-10-26T09:52:46;18.90;99.90
5246;DHT22;54412;51.206;6.888;2022-10-26T09:55:12;19.30;99.90
5246;DHT22;54412;51.206;6.888;2022-10-26T09:57:44;19.20;99.90
5246;DHT22;54412;51.206;6.888;2022-10-26T10:00:17;19.30;99.90
5246;DHT22;54412;51.206;6.888;2022-10-26T10:02:52;19.20;99.90
5246;DHT22;54412;51.206;6.888;2022-10-26T10:05:33;19.30;99.90
5246;DHT22;54412;51.206;6.888;2022-10-26T10:11:12;19.80;99.90
5246;DHT22;54412;51.206;6.888;2022-10-26T10:13:41;20.00;99.90
5246;DHT22;54412;51.206;6.888;2022-10-26T10:16:22;20.00;99.90
5246;DHT22;54412;51.206;6.888;2022-10-26T10:18:54;19.80;99.90
5246;DHT22;54412;51.206;6.888;2022-10-26T10:29:39;20.20;99.90
5246;DHT22;54412;51.206;6.888;2022-10-26T10:32:27;20.50;99.90
5246;DHT22;54412;51.206;6.888;2022-10-26T10:34:59;20.20;99.90
5246;DHT22;54412;51.206;6.888;2022-10-26T10:37:30;20.40;99.90
5246;DHT22;54412;51.206;6.888;2022-10-26T10:40:12;20.80;99.90
5246;DHT22;54412;51.206;6.888;2022-10-26T10:42:43;21.00;99.90
5246;DHT22;54412;51.206;6.888;2022-10-26T10:45:22;21.10;99.90
5246;DHT22;54412;51.206;6.888;2022-10-26T10:50:38;21.20;99.90
5246;DHT22;54412;51.206;6.888;2022-10-26T10:53:37;21.20;99.90
5246;DHT22;54412;51.206;6.888;2022-10-26T11:01:21;21.20;99.90
5246;DHT22;54412;51.206;6.888;2022-10-26T11:06:40;21.60;99.90
5246;DHT22;54412;51.206;6.888;2022-10-26T11:09:27;21.80;99.90
5246;DHT22;54412;51.206;6.888;2022-10-26T11:12:02;21.60;99.90
5246;DHT22;54412;51.206;6.888;2022-10-26T11:14:40;21.70;99.90
5246;DHT22;54412;51.206;6.888;2022-10-26T11:20:03;21.90;99.90
5246;DHT22;54412;51.206;6.888;2022-10-26T11:22:53;21.80;99.90
5246;DHT22;54412;51.206;6.888;2022-10-26T11:25:43;21.90;99.90
5246;DHT22;54412;51.206;6.888;2022-10-26T11:28:56;22.10;99.90
5246;DHT22;54412;51.206;6.888;2022-10-26T11:31:29;22.40;99.90
5246;DHT22;54412;51.206;6.888;2022-10-26T11:37:23;22.30;99.90
5246;DHT22;54412;51.206;6.888;2022-10-26T11:40:24;21.90;99.90
5246;DHT22;54412;51.206;6.888;2022-10-26T11:43:07;22.00;99.90
5246;DHT22;54412;51.206;6.888;2022-10-26T11:45:44;22.10;99.90
5246;DHT22;54412;51.206;6.888;2022-10-26T11:48:23;22.20;99.90
5246;DHT22;54412;51.206;6.888;2022-10-26T11:50:56;22.40;99.90
5246;DHT22;54412;51.206;6.888;2022-10-26T11:53:28;22.50;99.90
5246;DHT22;54412;51.206;6.888;2022-10-26T11:56:02;22.70;99.90
5246;DHT22;54412;51.206;6.888;2022-10-26T11:58:36;22.50;99.90
5246;DHT22;54412;51.206;6.888;2022-10-26T12:01:08;22.70;99.90
5246;DHT22;54412;51.206;6.888;2022-10-26T12:03:40;22.40;99.90
5246;DHT22;54412;51.206;6.888;2022-10-26T12:06:13;22.40;99.90
5246;DHT22;54412;51.206;6.888;2022-10-26T12:08:47;22.20;99.90
5246;DHT22;54412;51.206;6.888;2022-10-26T12:11:45;22.30;99.90
5246;DHT22;54412;51.206;6.888;2022-10-26T12:14:32;22.00;99.90
5246;DHT22;54412;51.206;6.888;2022-10-26T12:17:34;22.10;99.90
5246;DHT22;54412;51.206;6.888;2022-10-26T12:23:05;22.50;99.90
5246;DHT22;54412;51.206;6.888;2022-10-26T12:25:35;22.40;99.90
5246;DHT22;54412;51.206;6.888;2022-10-26T12:28:01;22.40;99.90
5246;DHT22;54412;51.206;6.888;2022-10-26T12:30:29;22.50;99.90
5246;DHT22;54412;51.206;6.888;2022-10-26T12:33:28;22.70;99.90
5246;DHT22;54412;51.206;6.888;2022-10-26T12:35:55;22.10;99.90
5246;DHT22;54412;51.206;6.888;2022-10-26T12:48:43;21.70;99.90
5246;DHT22;54412;51.206;6.888;2022-10-26T12:56:58;22.10;99.90
5246;DHT22;54412;51.206;6.888;2022-10-26T13:00:00;22.10;99.90
5246;DHT22;54412;51.206;6.888;2022-10-26T13:05:32;22.00;99.90
5246;DHT22;54412;51.206;6.888;2022-10-26T13:08:19;22.20;99.90
5246;DHT22;54412;51.206;6.888;2022-10-26T13:11:05;22.40;99.90
5246;DHT22;54412;51.206;6.888;2022-10-26T13:13:38;22.30;99.90
5246;DHT22;54412;51.206;6.888;2022-10-26T13:16:09;22.30;99.90
5246;DHT22;54412;51.206;6.888;2022-10-26T13:18:41;22.30;99.90
5246;DHT22;54412;51.206;6.888;2022-10-26T13:21:20;22.60;99.90
5246;DHT22;54412;51.206;6.888;2022-10-26T13:26:22;22.40;99.90
5246;DHT22;54412;51.206;6.888;2022-10-26T13:28:52;22.50;99.90
5246;DHT22;54412;51.206;6.888;2022-10-26T13:39:45;22.70;99.90
5246;DHT22;54412;51.206;6.888;2022-10-26T13:42:22;22.70;99.90
5246;DHT22;54412;51.206;6.888;2022-10-26T13:45:05;23.20;99.90
5246;DHT22;54412;51.206;6.888;2022-10-26T13:47:45;22.90;99.90
5246;DHT22;54412;51.206;6.888;2022-10-26T13:50:20;22.90;99.90
5246;DHT22;54412;51.206;6.888;2022-10-26T13:52:59;22.70;99.90
5246;DHT22;54412;51.206;6.888;2022-10-26T13:55:53;22.90;99.90
5246;DHT22;54412;51.206;6.888;2022-10-26T13:58:34;22.60;99.90
5246;DHT22;54412;51.206;6.888;2022-10-26T14:03:45;22.80;99.90
5246;DHT22;54412;51.206;6.888;2022-10-26T14:06:35;22.70;99.90
5246;DHT22;54412;51.206;6.888;2022-10-26T14:09:06;22.70;99.90
5246;DHT22;54412;51.206;6.888;2022-10-26T14:11:49;22.80;99.90
5246;DHT22;54412;51.206;6.888;2022-10-26T14:14:20;23.00;99.90
5246;DHT22;54412;51.206;6.888;2022-10-26T14:16:50;22.90;99.90
5246;DHT22;54412;51.206;6.888;2022-10-26T14:19:28;22.60;99.90
5246;DHT22;54412;51.206;6.888;2022-10-26T14:21:58;22.60;99.90
5246;DHT22;54412;51.206;6.888;2022-10-26T14:24:30;22.50;99.90
5246;DHT22;54412;51.206;6.888;2022-10-26T14:26:57;22.30;99.90
5246;DHT22;54412;51.206;6.888;2022-10-26T14:29:25;22.40;99.90
5246;DHT22;54412;51.206;6.888;2022-10-26T14:31:52;22.30;99.90
5246;DHT22;54412;51.206;6.888;2022-10-26T14:34:22;22.30;99.90
5246;DHT22;54412;51.206;6.888;2022-10-26T14:36:54;22.30;99.90
5246;DHT22;54412;51.206;6.888;2022-10-26T14:39:36;22.30;99.90
5246;DHT22;54412;51.206;6.888;2022-10-26T14:44:57;22.20;99.90
5246;DHT22;54412;51.206;6.888;2022-10-26T14:47:27;22.10;99.90
5246;DHT22;54412;51.206;6.888;2022-10-26T14:49:54;22.00;99.90
5246;DHT22;54412;51.206;6.888;2022-10-26T14:52:30;21.80;99.90
5246;DHT22;54412;51.206;6.888;2022-10-26T14:54:59;21.80;99.90
5246;DHT22;54412;51.206;6.888;2022-10-26T14:57:34;21.60;99.90
5246;DHT22;54412;51.206;6.888;2022-10-26T15:00:21;21.60;99.90
5246;DHT22;54412;51.206;6.888;2022-10-26T15:02:51;21.50;99.90
5246;DHT22;54412;51.206;6.888;2022-10-26T15:07:48;21.30;99.90
5246;DHT22;54412;51.206;6.888;2022-10-26T15:13:27;21.20;99.90
5246;DHT22;54412;51.206;6.888;2022-10-26T15:16:32;21.10;99.90
5246;DHT22;54412;51.206;6.888;2022-10-26T15:19:06;20.90;99.90
5246;DHT22;54412;51.206;6.888;2022-10-26T15:21:36;20.90;99.90
5246;DHT22;54412;51.206;6.888;2022-10-26T15:24:28;20.90;99.90
5246;DHT22;54412;51.206;6.888;2022-10-26T15:26:56;20.70;99.90
5246;DHT22;54412;51.206;6.888;2022-10-26T15:29:45;20.60;99.90
5246;DHT22;54412;51.206;6.888;2022-10-26T15:32:31;20.60;99.90
5246;DHT22;54412;51.206;6.888;2022-10-26T15:37:41;20.50;99.90
5246;DHT22;54412;51.206;6.888;2022-10-26T15:40:08;20.50;99.90
5246;DHT22;54412;51.206;6.888;2022-10-26T15:42:38;20.40;99.90
5246;DHT22;54412;51.206;6.888;2022-10-26T15:45:22;20.40;99.90
5246;DHT22;54412;51.206;6.888;2022-10-26T15:47:52;20.40;99.90
5246;DHT22;54412;51.206;6.888;2022-10-26T15:50:22;20.30;99.90
5246;DHT22;54412;51.206;6.888;2022-10-26T15:52:57;20.20;99.90
5246;DHT22;54412;51.206;6.888;2022-10-26T15:55:26;20.10;99.90
5246;DHT22;54412;51.206;6.888;2022-10-26T15:57:54;20.00;99.90
5246;DHT22;54412;51.206;6.888;2022-10-26T16:00:19;20.00;99.90
5246;DHT22;54412;51.206;6.888;2022-10-26T16:02:46;19.90;99.90
5246;DHT22;54412;51.206;6.888;2022-10-26T16:05:14;19.80;99.90
5246;DHT22;54412;51.206;6.888;2022-10-26T16:07:41;19.70;99.90
5246;DHT22;54412;51.206;6.888;2022-10-26T16:10:17;19.50;99.90
5246;DHT22;54412;51.206;6.888;2022-10-26T16:12:46;19.40;99.90
5246;DHT22;54412;51.206;6.888;2022-10-26T16:15:19;19.40;99.90
5246;DHT22;54412;51.206;6.888;2022-10-26T16:17:47;19.30;99.90
5246;DHT22;54412;51.206;6.888;2022-10-26T16:20:22;19.30;99.90
5246;DHT22;54412;51.206;6.888;2022-10-26T16:22:50;19.30;99.90
5246;DHT22;54412;51.206;6.888;2022-10-26T16:25:19;19.30;99.90
5246;DHT22;54412;51.206;6.888;2022-10-26T16:27:47;19.30;99.90
5246;DHT22;54412;51.206;6.888;2022-10-26T16:30:14;19.30;99.90
5246;DHT22;54412;51.206;6.888;2022-10-26T16:32:41;19.30;99.90
5246;DHT22;54412;51.206;6.888;2022-10-26T16:35:07;19.30;99.90
5246;DHT22;54412;51.206;6.888;2022-10-26T16:37:34;19.10;99.90
5246;DHT22;54412;51.206;6.888;2022-10-26T16:40:00;19.00;99.90
5246;DHT22;54412;51.206;6.888;2022-10-26T16:42:26;18.90;99.90
5246;DHT22;54412;51.206;6.888;2022-10-26T16:44:53;18.90;99.90
5246;DHT22;54412;51.206;6.888;2022-10-26T16:47:19;18.90;99.90
5246;DHT22;54412;51.206;6.888;2022-10-26T16:49:44;18.80;99.90
5246;DHT22;54412;51.206;6.888;2022-10-26T16:52:11;18.80;99.90
5246;DHT22;54412;51.206;6.888;2022-10-26T16:54:37;18.70;99.90
5246;DHT22;54412;51.206;6.888;2022-10-26T16:57:03;18.60;99.90
5246;DHT22;54412;51.206;6.888;2022-10-26T16:59:29;18.50;99.90
5246;DHT22;54412;51.206;6.888;2022-10-26T17:01:55;18.40;99.90
5246;DHT22;54412;51.206;6.888;2022-10-26T17:04:21;18.30;99.90
5246;DHT22;54412;51.206;6.888;2022-10-26T17:06:48;18.20;99.90
5246;DHT22;54412;51.206;6.888;2022-10-26T17:09:13;18.10;99.90
5246;DHT22;54412;51.206;6.888;2022-10-26T17:11:40;18.00;99.90
5246;DHT22;54412;51.206;6.888;2022-10-26T17:14:05;18.00;99.90
5246;DHT22;54412;51.206;6.888;2022-10-26T17:16:31;17.90;99.90
5246;DHT22;54412;51.206;6.888;2022-10-26T17:18:59;17.90;99.90
5246;DHT22;54412;51.206;6.888;2022-10-26T17:21:31;17.90;99.90
5246;DHT22;54412;51.206;6.888;2022-10-26T17:23:59;17.90;99.90
5246;DHT22;54412;51.206;6.888;2022-10-26T17:26:25;17.80;99.90
5246;DHT22;54412;51.206;6.888;2022-10-26T17:28:52;17.80;99.90
5246;DHT22;54412;51.206;6.888;2022-10-26T17:31:21;17.70;99.90
5246;DHT22;54412;51.206;6.888;2022-10-26T17:33:47;17.70;99.90
5246;DHT22;54412;51.206;6.888;2022-10-26T17:36:20;17.70;99.90
5246;DHT22;54412;51.206;6.888;2022-10-26T17:38:48;17.70;99.90
5246;DHT22;54412;51.206;6.888;2022-10-26T17:41:17;17.70;99.90
5246;DHT22;54412;51.206;6.888;2022-10-26T17:43:45;17.70;99.90
5246;DHT22;54412;51.206;6.888;2022-10-26T17:46:14;17.70;99.90
5246;DHT22;54412;51.206;6.888;2022-10-26T17:48:41;17.70;99.90
5246;DHT22;54412;51.206;6.888;2022-10-26T17:51:18;17.70;99.90
5246;DHT22;54412;51.206;6.888;2022-10-26T17:53:48;17.70;99.90
5246;DHT22;54412;51.206;6.888;2022-10-26T17:56:25;17.70;99.90
5246;DHT22;54412;51.206;6.888;2022-10-26T17:58:58;17.80;99.90
5246;DHT22;54412;51.206;6.888;2022-10-26T18:01:25;17.70;99.90
5246;DHT22;54412;51.206;6.888;2022-10-26T18:03:52;17.80;99.90
5246;DHT22;54412;51.206;6.888;2022-10-26T18:06:19;17.70;99.90
5246;DHT22;54412;51.206;6.888;2022-10-26T18:08:45;17.70;99.90
5246;DHT22;54412;51.206;6.888;2022-10-26T18:11:14;17.70;99.90
5246;DHT22;54412;51.206;6.888;2022-10-26T18:13:44;17.70;99.90
5246;DHT22;54412;51.206;6.888;2022-10-26T18:16:16;17.70;99.90
5246;DHT22;54412;51.206;6.888;2022-10-26T18:18:45;17.60;99.90
5246;DHT22;54412;51.206;6.888;2022-10-26T18:21:15;17.50;99.90
5246;DHT22;54412;51.206;6.888;2022-10-26T18:23:45;17.50;99.90
5246;DHT22;54412;51.206;6.888;2022-10-26T18:26:16;17.50;99.90
5246;DHT22;54412;51.206;6.888;2022-10-26T18:28:56;17.40;99.90